sensor_id;sensor_type;location;lat;lon;timestamp;P1;durP1;ratioP1;P2;durP2;ratioP2
16436;SDS011;8328;52.206;21.006;2022-10-14T00:01:02;154.02;;;41.58;;
16436;SDS011;8328;52.206;21.006;2022-10-14T00:03:31;178.70;;;43.22;;
16436;SDS011;8328;52.206;21.006;2022-10-14T00:05:57;167.23;;;43.47;;
16436;SDS011;8328;52.206;21.006;2022-10-14T00:08:33;165.60;;;42.70;;
16436;SDS011;8328;52.206;21.006;2022-10-14T00:11:11;170.77;;;45.17;;
16436;SDS011;8328;52.206;21.006;2022-10-14T00:13:45;169.73;;;49.63;;
16436;SDS011;8328;52.206;21.006;2022-10-14T00:16:18;155.25;;;41.50;;
16436;SDS011;8328;52.206;21.006;2022-10-14T00:18:58;153.25;;;42.47;;
16436;SDS011;8328;52.206;21.006;2022-10-14T00:21:25;165.77;;;43.97;;
16436;SDS011;8328;52.206;21.006;2022-10-14T00:23:52;191.30;;;47.05;;
16436;SDS011;8328;52.206;21.006;2022-10-14T00:26:28;166.15;;;42.30;;
16436;SDS011;8328;52.206;21.006;2022-10-14T00:28:56;189.15;;;45.75;;
16436;SDS011;8328;52.206;21.006;2022-10-14T00:31:23;178.65;;;42.72;;
16436;SDS011;8328;52.206;21.006;2022-10-14T00:33:51;175.75;;;44.97;;
16436;SDS011;8328;52.206;21.006;2022-10-14T00:36:18;159.82;;;41.20;;
16436;SDS011;8328;52.206;21.006;2022-10-14T00:38:45;162.80;;;41.58;;
16436;SDS011;8328;52.206;21.006;2022-10-14T00:41:13;174.40;;;45.85;;
16436;SDS011;8328;52.206;21.006;2022-10-14T00:46:31;163.10;;;41.53;;
16436;SDS011;8328;52.206;21.006;2022-10-14T00:49:00;175.57;;;43.47;;
16436;SDS011;8328;52.206;21.006;2022-10-14T00:51:33;156.95;;;41.50;;
16436;SDS011;8328;52.206;21.006;2022-10-14T00:54:00;157.10;;;42.03;;
16436;SDS011;8328;52.206;21.006;2022-10-14T00:56:27;166.70;;;43.88;;
16436;SDS011;8328;52.206;21.006;2022-10-14T00:58:54;165.95;;;42.92;;
16436;SDS011;8328;52.206;21.006;2022-10-14T01:01:21;161.88;;;44.05;;
16436;SDS011;8328;52.206;21.006;2022-10-14T01:03:47;153.20;;;41.25;;
16436;SDS011;8328;52.206;21.006;2022-10-14T01:09:00;150.90;;;42.70;;
16436;SDS011;8328;52.206;21.006;2022-10-14T01:11:38;155.05;;;43.95;;
16436;SDS011;8328;52.206;21.006;2022-10-14T01:14:32;144.68;;;38.85;;
16436;SDS011;8328;52.206;21.006;2022-10-14T01:22:42;144.50;;;40.03;;
16436;SDS011;8328;52.206;21.006;2022-10-14T01:25:24;145.05;;;40.03;;
16436;SDS011;8328;52.206;21.006;2022-10-14T01:30:57;152.77;;;43.33;;
16436;SDS011;8328;52.206;21.006;2022-10-14T01:33:26;143.98;;;40.40;;
16436;SDS011;8328;52.206;21.006;2022-10-14T01:36:05;152.48;;;42.85;;
16436;SDS011;8328;52.206;21.006;2022-10-14T01:43:38;152.13;;;43.42;;
16436;SDS011;8328;52.206;21.006;2022-10-14T01:46:07;143.32;;;39.60;;
16436;SDS011;8328;52.206;21.006;2022-10-14T01:48:36;150.80;;;41.42;;
16436;SDS011;8328;52.206;21.006;2022-10-14T01:51:10;150.07;;;41.92;;
16436;SDS011;8328;52.206;21.006;2022-10-14T01:53:41;159.18;;;44.92;;
16436;SDS011;8328;52.206;21.006;2022-10-14T01:56:10;161.68;;;47.08;;
16436;SDS011;8328;52.206;21.006;2022-10-14T01:58:37;162.57;;;46.80;;
16436;SDS011;8328;52.206;21.006;2022-10-14T02:01:05;152.90;;;44.03;;
16436;SDS011;8328;52.206;21.006;2022-10-14T02:03:50;142.50;;;41.78;;
16436;SDS011;8328;52.206;21.006;2022-10-14T02:14:43;150.13;;;44.28;;
16436;SDS011;8328;52.206;21.006;2022-10-14T02:17:36;158.38;;;46.65;;
16436;SDS011;8328;52.206;21.006;2022-10-14T02:20:17;142.07;;;40.70;;
16436;SDS011;8328;52.206;21.006;2022-10-14T02:22:50;148.02;;;41.45;;
16436;SDS011;8328;52.206;21.006;2022-10-14T02:25:23;146.25;;;41.58;;
16436;SDS011;8328;52.206;21.006;2022-10-14T02:27:55;144.98;;;40.00;;
16436;SDS011;8328;52.206;21.006;2022-10-14T02:30:23;145.15;;;40.08;;
16436;SDS011;8328;52.206;21.006;2022-10-14T02:32:50;151.25;;;41.33;;
16436;SDS011;8328;52.206;21.006;2022-10-14T02:35:17;150.18;;;41.90;;
16436;SDS011;8328;52.206;21.006;2022-10-14T02:37:44;150.88;;;43.25;;
16436;SDS011;8328;52.206;21.006;2022-10-14T02:40:13;152.55;;;43.20;;
16436;SDS011;8328;52.206;21.006;2022-10-14T02:42:44;157.25;;;43.65;;
16436;SDS011;8328;52.206;21.006;2022-10-14T02:45:10;161.17;;;43.17;;
16436;SDS011;8328;52.206;21.006;2022-10-14T02:47:38;156.50;;;43.72;;
16436;SDS011;8328;52.206;21.006;2022-10-14T02:50:04;163.97;;;43.70;;
16436;SDS011;8328;52.206;21.006;2022-10-14T02:52:30;149.82;;;40.80;;
16436;SDS011;8328;52.206;21.006;2022-10-14T02:54:56;164.50;;;42.43;;
16436;SDS011;8328;52.206;21.006;2022-10-14T02:57:22;169.77;;;46.07;;
16436;SDS011;8328;52.206;21.006;2022-10-14T02:59:47;153.07;;;42.40;;
16436;SDS011;8328;52.206;21.006;2022-10-14T03:02:13;167.63;;;43.60;;
16436;SDS011;8328;52.206;21.006;2022-10-14T03:04:39;150.13;;;40.07;;
16436;SDS011;8328;52.206;21.006;2022-10-14T03:07:05;151.23;;;41.47;;
16436;SDS011;8328;52.206;21.006;2022-10-14T03:09:30;145.87;;;40.47;;
16436;SDS011;8328;52.206;21.006;2022-10-14T03:11:56;159.37;;;44.20;;
16436;SDS011;8328;52.206;21.006;2022-10-14T03:14:22;146.47;;;41.17;;
16436;SDS011;8328;52.206;21.006;2022-10-14T03:16:48;153.35;;;43.42;;
16436;SDS011;8328;52.206;21.006;2022-10-14T03:19:14;150.67;;;43.23;;
16436;SDS011;8328;52.206;21.006;2022-10-14T03:21:40;153.37;;;43.47;;
16436;SDS011;8328;52.206;21.006;2022-10-14T03:24:05;144.47;;;41.23;;
16436;SDS011;8328;52.206;21.006;2022-10-14T03:26:33;144.93;;;41.33;;
16436;SDS011;8328;52.206;21.006;2022-10-14T03:28:58;140.60;;;40.37;;
16436;SDS011;8328;52.206;21.006;2022-10-14T03:31:24;148.43;;;42.70;;
16436;SDS011;8328;52.206;21.006;2022-10-14T03:33:50;140.70;;;40.50;;
16436;SDS011;8328;52.206;21.006;2022-10-14T03:36:16;141.57;;;41.47;;
16436;SDS011;8328;52.206;21.006;2022-10-14T03:38:41;137.90;;;40.73;;
16436;SDS011;8328;52.206;21.006;2022-10-14T03:41:07;145.07;;;41.83;;
16436;SDS011;8328;52.206;21.006;2022-10-14T03:43:33;137.37;;;40.20;;
16436;SDS011;8328;52.206;21.006;2022-10-14T03:45:59;140.60;;;41.70;;
16436;SDS011;8328;52.206;21.006;2022-10-14T03:48:24;134.67;;;39.13;;
16436;SDS011;8328;52.206;21.006;2022-10-14T03:50:50;145.67;;;43.83;;
16436;SDS011;8328;52.206;21.006;2022-10-14T03:53:16;146.67;;;43.23;;
16436;SDS011;8328;52.206;21.006;2022-10-14T03:55:42;137.10;;;40.13;;
16436;SDS011;8328;52.206;21.006;2022-10-14T03:58:07;148.10;;;43.33;;
16436;SDS011;8328;52.206;21.006;2022-10-14T04:00:34;142.27;;;41.83;;
16436;SDS011;8328;52.206;21.006;2022-10-14T04:03:00;140.47;;;41.33;;
16436;SDS011;8328;52.206;21.006;2022-10-14T04:05:26;138.43;;;40.67;;
16436;SDS011;8328;52.206;21.006;2022-10-14T04:07:57;151.55;;;43.35;;
16436;SDS011;8328;52.206;21.006;2022-10-14T04:10:24;153.20;;;42.97;;
16436;SDS011;8328;52.206;21.006;2022-10-14T04:12:51;157.00;;;42.97;;
16436;SDS011;8328;52.206;21.006;2022-10-14T04:15:17;164.88;;;40.85;;
16436;SDS011;8328;52.206;21.006;2022-10-14T04:17:44;204.38;;;49.05;;
16436;SDS011;8328;52.206;21.006;2022-10-14T04:20:09;189.67;;;44.27;;
16436;SDS011;8328;52.206;21.006;2022-10-14T04:22:35;194.33;;;48.13;;
16436;SDS011;8328;52.206;21.006;2022-10-14T04:25:01;185.07;;;44.80;;
16436;SDS011;8328;52.206;21.006;2022-10-14T04:27:27;189.35;;;45.55;;
16436;SDS011;8328;52.206;21.006;2022-10-14T04:29:53;186.20;;;44.07;;
16436;SDS011;8328;52.206;21.006;2022-10-14T04:32:19;177.63;;;42.20;;
16436;SDS011;8328;52.206;21.006;2022-10-14T04:34:45;173.27;;;43.38;;
16436;SDS011;8328;52.206;21.006;2022-10-14T04:37:11;176.10;;;44.27;;
16436;SDS011;8328;52.206;21.006;2022-10-14T04:39:37;177.63;;;45.20;;
16436;SDS011;8328;52.206;21.006;2022-10-14T04:42:03;169.80;;;43.67;;
16436;SDS011;8328;52.206;21.006;2022-10-14T04:44:29;163.87;;;42.37;;
16436;SDS011;8328;52.206;21.006;2022-10-14T04:46:54;168.57;;;45.70;;
16436;SDS011;8328;52.206;21.006;2022-10-14T04:49:20;161.90;;;43.77;;
16436;SDS011;8328;52.206;21.006;2022-10-14T04:51:46;161.48;;;41.28;;
16436;SDS011;8328;52.206;21.006;2022-10-14T04:54:12;159.17;;;41.60;;
16436;SDS011;8328;52.206;21.006;2022-10-14T04:56:38;173.07;;;45.03;;
16436;SDS011;8328;52.206;21.006;2022-10-14T04:59:03;171.73;;;44.40;;
16436;SDS011;8328;52.206;21.006;2022-10-14T05:01:29;176.48;;;42.33;;
16436;SDS011;8328;52.206;21.006;2022-10-14T05:03:55;166.93;;;40.63;;
16436;SDS011;8328;52.206;21.006;2022-10-14T05:06:21;175.47;;;41.53;;
16436;SDS011;8328;52.206;21.006;2022-10-14T05:08:47;191.17;;;46.60;;
16436;SDS011;8328;52.206;21.006;2022-10-14T05:11:12;186.93;;;44.87;;
16436;SDS011;8328;52.206;21.006;2022-10-14T05:13:38;206.93;;;50.07;;
16436;SDS011;8328;52.206;21.006;2022-10-14T05:16:04;200.27;;;47.70;;
16436;SDS011;8328;52.206;21.006;2022-10-14T05:18:30;205.68;;;47.90;;
16436;SDS011;8328;52.206;21.006;2022-10-14T05:20:57;205.23;;;49.73;;
16436;SDS011;8328;52.206;21.006;2022-10-14T05:23:23;187.63;;;47.50;;
16436;SDS011;8328;52.206;21.006;2022-10-14T05:25:49;195.90;;;49.80;;
16436;SDS011;8328;52.206;21.006;2022-10-14T05:28:18;188.85;;;47.28;;
16436;SDS011;8328;52.206;21.006;2022-10-14T05:30:44;186.50;;;46.95;;
16436;SDS011;8328;52.206;21.006;2022-10-14T05:33:10;199.43;;;51.83;;
16436;SDS011;8328;52.206;21.006;2022-10-14T05:35:36;203.88;;;50.60;;
16436;SDS011;8328;52.206;21.006;2022-10-14T05:38:02;178.53;;;46.60;;
16436;SDS011;8328;52.206;21.006;2022-10-14T05:40:28;184.63;;;50.22;;
16436;SDS011;8328;52.206;21.006;2022-10-14T05:42:53;169.33;;;47.23;;
16436;SDS011;8328;52.206;21.006;2022-10-14T05:45:19;167.37;;;48.10;;
16436;SDS011;8328;52.206;21.006;2022-10-14T05:47:45;154.73;;;46.37;;
16436;SDS011;8328;52.206;21.006;2022-10-14T05:50:11;157.27;;;45.88;;
16436;SDS011;8328;52.206;21.006;2022-10-14T05:52:38;155.98;;;46.17;;
16436;SDS011;8328;52.206;21.006;2022-10-14T05:55:05;153.93;;;46.05;;
16436;SDS011;8328;52.206;21.006;2022-10-14T05:57:31;157.57;;;47.75;;
16436;SDS011;8328;52.206;21.006;2022-10-14T05:59:58;147.45;;;46.30;;
16436;SDS011;8328;52.206;21.006;2022-10-14T06:02:25;195.88;;;58.90;;
16436;SDS011;8328;52.206;21.006;2022-10-14T06:04:51;153.18;;;46.38;;
16436;SDS011;8328;52.206;21.006;2022-10-14T06:07:17;139.33;;;42.77;;
16436;SDS011;8328;52.206;21.006;2022-10-14T06:09:46;159.10;;;47.33;;
16436;SDS011;8328;52.206;21.006;2022-10-14T06:12:12;162.13;;;47.77;;
16436;SDS011;8328;52.206;21.006;2022-10-14T06:14:38;171.55;;;48.70;;
16436;SDS011;8328;52.206;21.006;2022-10-14T06:17:04;156.10;;;46.13;;
16436;SDS011;8328;52.206;21.006;2022-10-14T06:19:31;158.43;;;46.72;;
16436;SDS011;8328;52.206;21.006;2022-10-14T06:21:57;159.38;;;45.38;;
16436;SDS011;8328;52.206;21.006;2022-10-14T06:24:23;163.23;;;48.00;;
16436;SDS011;8328;52.206;21.006;2022-10-14T06:26:48;147.87;;;41.87;;
16436;SDS011;8328;52.206;21.006;2022-10-14T06:29:15;166.17;;;46.60;;
16436;SDS011;8328;52.206;21.006;2022-10-14T06:31:41;169.27;;;45.75;;
16436;SDS011;8328;52.206;21.006;2022-10-14T06:34:07;168.93;;;45.13;;
16436;SDS011;8328;52.206;21.006;2022-10-14T06:36:33;166.17;;;42.90;;
16436;SDS011;8328;52.206;21.006;2022-10-14T06:38:59;168.65;;;45.42;;
16436;SDS011;8328;52.206;21.006;2022-10-14T06:41:25;167.70;;;42.50;;
16436;SDS011;8328;52.206;21.006;2022-10-14T06:43:51;169.77;;;44.20;;
16436;SDS011;8328;52.206;21.006;2022-10-14T06:46:17;167.15;;;44.00;;
16436;SDS011;8328;52.206;21.006;2022-10-14T06:48:43;160.67;;;43.30;;
16436;SDS011;8328;52.206;21.006;2022-10-14T06:51:08;159.57;;;43.87;;
16436;SDS011;8328;52.206;21.006;2022-10-14T06:53:34;152.17;;;42.83;;
16436;SDS011;8328;52.206;21.006;2022-10-14T06:56:04;154.63;;;42.73;;
16436;SDS011;8328;52.206;21.006;2022-10-14T06:58:31;153.75;;;42.95;;
16436;SDS011;8328;52.206;21.006;2022-10-14T07:01:04;150.90;;;43.42;;
16436;SDS011;8328;52.206;21.006;2022-10-14T07:03:32;164.98;;;44.58;;
16436;SDS011;8328;52.206;21.006;2022-10-14T07:06:02;145.93;;;43.53;;
16436;SDS011;8328;52.206;21.006;2022-10-14T07:08:28;145.52;;;40.88;;
16436;SDS011;8328;52.206;21.006;2022-10-14T07:10:54;143.43;;;40.97;;
16436;SDS011;8328;52.206;21.006;2022-10-14T07:13:20;141.90;;;41.13;;
16436;SDS011;8328;52.206;21.006;2022-10-14T07:15:48;155.80;;;44.57;;
16436;SDS011;8328;52.206;21.006;2022-10-14T07:18:15;161.70;;;45.13;;
16436;SDS011;8328;52.206;21.006;2022-10-14T07:20:41;168.80;;;45.15;;
16436;SDS011;8328;52.206;21.006;2022-10-14T07:23:07;173.07;;;47.28;;
16436;SDS011;8328;52.206;21.006;2022-10-14T07:25:33;167.48;;;43.20;;
16436;SDS011;8328;52.206;21.006;2022-10-14T07:27:59;165.60;;;43.70;;
16436;SDS011;8328;52.206;21.006;2022-10-14T07:30:25;171.97;;;43.83;;
16436;SDS011;8328;52.206;21.006;2022-10-14T07:32:54;162.13;;;45.43;;
16436;SDS011;8328;52.206;21.006;2022-10-14T07:35:20;159.75;;;43.42;;
16436;SDS011;8328;52.206;21.006;2022-10-14T07:37:46;170.07;;;45.80;;
16436;SDS011;8328;52.206;21.006;2022-10-14T07:40:12;167.77;;;46.22;;
16436;SDS011;8328;52.206;21.006;2022-10-14T07:42:39;165.43;;;46.10;;
16436;SDS011;8328;52.206;21.006;2022-10-14T07:45:05;155.10;;;43.90;;
16436;SDS011;8328;52.206;21.006;2022-10-14T07:47:31;170.07;;;46.47;;
16436;SDS011;8328;52.206;21.006;2022-10-14T07:50:00;164.30;;;43.20;;
16436;SDS011;8328;52.206;21.006;2022-10-14T07:52:26;164.50;;;44.58;;
16436;SDS011;8328;52.206;21.006;2022-10-14T07:54:52;167.57;;;46.10;;
16436;SDS011;8328;52.206;21.006;2022-10-14T07:57:18;160.23;;;43.45;;
16436;SDS011;8328;52.206;21.006;2022-10-14T07:59:44;165.30;;;43.63;;
16436;SDS011;8328;52.206;21.006;2022-10-14T08:02:11;160.25;;;42.70;;
16436;SDS011;8328;52.206;21.006;2022-10-14T08:04:37;164.25;;;45.30;;
16436;SDS011;8328;52.206;21.006;2022-10-14T08:07:03;160.70;;;45.35;;
16436;SDS011;8328;52.206;21.006;2022-10-14T08:09:29;152.38;;;42.63;;
16436;SDS011;8328;52.206;21.006;2022-10-14T08:11:55;145.95;;;42.15;;
16436;SDS011;8328;52.206;21.006;2022-10-14T08:14:27;154.00;;;42.80;;
16436;SDS011;8328;52.206;21.006;2022-10-14T08:16:52;149.52;;;41.53;;
16436;SDS011;8328;52.206;21.006;2022-10-14T08:19:18;160.57;;;43.80;;
16436;SDS011;8328;52.206;21.006;2022-10-14T08:21:47;160.00;;;42.33;;
16436;SDS011;8328;52.206;21.006;2022-10-14T08:24:12;158.93;;;42.75;;
16436;SDS011;8328;52.206;21.006;2022-10-14T08:26:39;156.87;;;42.87;;
16436;SDS011;8328;52.206;21.006;2022-10-14T08:29:28;154.48;;;44.88;;
16436;SDS011;8328;52.206;21.006;2022-10-14T08:31:54;159.48;;;44.28;;
16436;SDS011;8328;52.206;21.006;2022-10-14T08:34:20;168.10;;;45.70;;
16436;SDS011;8328;52.206;21.006;2022-10-14T08:36:48;164.52;;;44.38;;
16436;SDS011;8328;52.206;21.006;2022-10-14T08:39:18;160.23;;;42.90;;
16436;SDS011;8328;52.206;21.006;2022-10-14T08:44:24;162.88;;;42.80;;
16436;SDS011;8328;52.206;21.006;2022-10-14T08:52:02;154.68;;;42.58;;
16436;SDS011;8328;52.206;21.006;2022-10-14T08:54:47;149.13;;;41.95;;
16436;SDS011;8328;52.206;21.006;2022-10-14T08:57:23;150.68;;;41.67;;
16436;SDS011;8328;52.206;21.006;2022-10-14T08:59:51;154.57;;;42.80;;
16436;SDS011;8328;52.206;21.006;2022-10-14T09:05:20;149.68;;;41.42;;
16436;SDS011;8328;52.206;21.006;2022-10-14T09:07:48;150.20;;;44.35;;
16436;SDS011;8328;52.206;21.006;2022-10-14T09:10:35;147.55;;;42.50;;
16436;SDS011;8328;52.206;21.006;2022-10-14T09:13:15;145.00;;;42.95;;
16436;SDS011;8328;52.206;21.006;2022-10-14T09:15:47;138.88;;;39.63;;
16436;SDS011;8328;52.206;21.006;2022-10-14T09:18:34;149.23;;;43.20;;
16436;SDS011;8328;52.206;21.006;2022-10-14T09:21:16;137.57;;;39.53;;
16436;SDS011;8328;52.206;21.006;2022-10-14T09:23:55;135.55;;;39.85;;
16436;SDS011;8328;52.206;21.006;2022-10-14T09:26:44;137.60;;;40.30;;
16436;SDS011;8328;52.206;21.006;2022-10-14T09:29:19;140.27;;;41.25;;
16436;SDS011;8328;52.206;21.006;2022-10-14T09:31:50;137.73;;;41.10;;
16436;SDS011;8328;52.206;21.006;2022-10-14T09:34:18;138.43;;;41.33;;
16436;SDS011;8328;52.206;21.006;2022-10-14T09:36:48;135.23;;;40.35;;
16436;SDS011;8328;52.206;21.006;2022-10-14T09:39:15;139.88;;;44.83;;
16436;SDS011;8328;52.206;21.006;2022-10-14T09:41:42;133.02;;;39.78;;
16436;SDS011;8328;52.206;21.006;2022-10-14T09:44:20;137.98;;;41.83;;
16436;SDS011;8328;52.206;21.006;2022-10-14T09:46:56;144.32;;;44.33;;
16436;SDS011;8328;52.206;21.006;2022-10-14T09:49:39;131.35;;;40.00;;
16436;SDS011;8328;52.206;21.006;2022-10-14T09:52:19;132.80;;;40.30;;
16436;SDS011;8328;52.206;21.006;2022-10-14T09:54:51;134.30;;;40.72;;
16436;SDS011;8328;52.206;21.006;2022-10-14T09:57:19;131.80;;;39.92;;
16436;SDS011;8328;52.206;21.006;2022-10-14T10:00:05;134.23;;;41.20;;
16436;SDS011;8328;52.206;21.006;2022-10-14T10:02:41;134.20;;;41.38;;
16436;SDS011;8328;52.206;21.006;2022-10-14T10:05:11;135.10;;;41.25;;
16436;SDS011;8328;52.206;21.006;2022-10-14T10:08:22;135.85;;;42.67;;
16436;SDS011;8328;52.206;21.006;2022-10-14T10:10:57;128.10;;;38.85;;
16436;SDS011;8328;52.206;21.006;2022-10-14T10:13:32;161.15;;;41.85;;
16436;SDS011;8328;52.206;21.006;2022-10-14T10:16:01;168.95;;;45.22;;
16436;SDS011;8328;52.206;21.006;2022-10-14T10:18:28;170.05;;;42.25;;
16436;SDS011;8328;52.206;21.006;2022-10-14T10:21:01;174.73;;;42.03;;
16436;SDS011;8328;52.206;21.006;2022-10-14T10:23:39;186.38;;;47.17;;
16436;SDS011;8328;52.206;21.006;2022-10-14T10:26:28;167.55;;;41.63;;
16436;SDS011;8328;52.206;21.006;2022-10-14T10:28:57;172.30;;;43.25;;
16436;SDS011;8328;52.206;21.006;2022-10-14T10:34:37;172.52;;;43.60;;
16436;SDS011;8328;52.206;21.006;2022-10-14T10:37:18;173.32;;;44.85;;
16436;SDS011;8328;52.206;21.006;2022-10-14T10:42:37;167.10;;;42.70;;
16436;SDS011;8328;52.206;21.006;2022-10-14T10:51:27;181.68;;;43.95;;
16436;SDS011;8328;52.206;21.006;2022-10-14T10:53:43;178.55;;;45.28;;
16436;SDS011;8328;52.206;21.006;2022-10-14T11:04:38;161.07;;;42.50;;
16436;SDS011;8328;52.206;21.006;2022-10-14T11:13:19;159.73;;;45.03;;
16436;SDS011;8328;52.206;21.006;2022-10-14T11:16:04;149.25;;;43.72;;
16436;SDS011;8328;52.206;21.006;2022-10-14T11:21:19;142.18;;;41.25;;
16436;SDS011;8328;52.206;21.006;2022-10-14T11:44:18;137.50;;;43.95;;
16436;SDS011;8328;52.206;21.006;2022-10-14T11:46:56;135.98;;;45.40;;
16436;SDS011;8328;52.206;21.006;2022-10-14T11:49:42;129.07;;;41.70;;
16436;SDS011;8328;52.206;21.006;2022-10-14T11:52:10;133.38;;;44.28;;
16436;SDS011;8328;52.206;21.006;2022-10-14T11:54:47;127.75;;;41.20;;
16436;SDS011;8328;52.206;21.006;2022-10-14T11:57:22;131.68;;;43.88;;
16436;SDS011;8328;52.206;21.006;2022-10-14T12:11:21;125.40;;;43.88;;
16436;SDS011;8328;52.206;21.006;2022-10-14T12:13:53;124.55;;;40.35;;
16436;SDS011;8328;52.206;21.006;2022-10-14T12:16:24;128.93;;;42.17;;
16436;SDS011;8328;52.206;21.006;2022-10-14T12:18:54;128.53;;;41.73;;
16436;SDS011;8328;52.206;21.006;2022-10-14T12:21:32;136.50;;;41.58;;
16436;SDS011;8328;52.206;21.006;2022-10-14T12:24:16;129.57;;;40.42;;
16436;SDS011;8328;52.206;21.006;2022-10-14T12:26:47;141.05;;;41.92;;
16436;SDS011;8328;52.206;21.006;2022-10-14T12:29:21;141.25;;;43.80;;
16436;SDS011;8328;52.206;21.006;2022-10-14T12:34:46;121.18;;;41.22;;
16436;SDS011;8328;52.206;21.006;2022-10-14T12:39:51;120.80;;;42.35;;
16436;SDS011;8328;52.206;21.006;2022-10-14T12:42:18;121.20;;;42.45;;
16436;SDS011;8328;52.206;21.006;2022-10-14T12:44:49;109.72;;;40.30;;
16436;SDS011;8328;52.206;21.006;2022-10-14T12:47:34;107.55;;;40.17;;
16436;SDS011;8328;52.206;21.006;2022-10-14T12:50:04;110.95;;;41.63;;
16436;SDS011;8328;52.206;21.006;2022-10-14T12:52:39;115.60;;;41.55;;
16436;SDS011;8328;52.206;21.006;2022-10-14T12:55:20;118.63;;;41.08;;
16436;SDS011;8328;52.206;21.006;2022-10-14T12:57:54;131.05;;;43.40;;
16436;SDS011;8328;52.206;21.006;2022-10-14T13:02:49;139.10;;;45.03;;
16436;SDS011;8328;52.206;21.006;2022-10-14T13:05:23;127.55;;;41.95;;
16436;SDS011;8328;52.206;21.006;2022-10-14T13:18:53;134.32;;;44.42;;
16436;SDS011;8328;52.206;21.006;2022-10-14T13:37:38;119.93;;;43.38;;
16436;SDS011;8328;52.206;21.006;2022-10-14T13:42:59;113.70;;;41.38;;
16436;SDS011;8328;52.206;21.006;2022-10-14T13:45:33;125.03;;;44.15;;
16436;SDS011;8328;52.206;21.006;2022-10-14T13:48:08;117.30;;;41.40;;
16436;SDS011;8328;52.206;21.006;2022-10-14T13:50:41;129.95;;;44.97;;
16436;SDS011;8328;52.206;21.006;2022-10-14T13:53:19;124.10;;;41.92;;
16436;SDS011;8328;52.206;21.006;2022-10-14T13:55:47;123.57;;;42.08;;
16436;SDS011;8328;52.206;21.006;2022-10-14T13:58:20;122.47;;;41.83;;
16436;SDS011;8328;52.206;21.006;2022-10-14T14:06:15;136.80;;;44.05;;
16436;SDS011;8328;52.206;21.006;2022-10-14T14:08:53;132.52;;;42.20;;
16436;SDS011;8328;52.206;21.006;2022-10-14T14:16:32;133.75;;;42.67;;
16436;SDS011;8328;52.206;21.006;2022-10-14T14:19:00;133.00;;;41.78;;
16436;SDS011;8328;52.206;21.006;2022-10-14T14:21:27;133.93;;;44.55;;
16436;SDS011;8328;52.206;21.006;2022-10-14T14:23:58;127.72;;;41.80;;
16436;SDS011;8328;52.206;21.006;2022-10-14T14:26:33;134.32;;;45.20;;
16436;SDS011;8328;52.206;21.006;2022-10-14T14:29:05;130.07;;;42.83;;
16436;SDS011;8328;52.206;21.006;2022-10-14T14:31:35;124.40;;;42.72;;
16436;SDS011;8328;52.206;21.006;2022-10-14T14:34:02;118.50;;;41.13;;
16436;SDS011;8328;52.206;21.006;2022-10-14T14:36:29;121.25;;;41.17;;
16436;SDS011;8328;52.206;21.006;2022-10-14T14:38:59;121.80;;;43.53;;
16436;SDS011;8328;52.206;21.006;2022-10-14T14:41:29;118.60;;;42.92;;
16436;SDS011;8328;52.206;21.006;2022-10-14T14:44:03;104.70;;;40.35;;
16436;SDS011;8328;52.206;21.006;2022-10-14T14:46:35;104.05;;;45.05;;
16436;SDS011;8328;52.206;21.006;2022-10-14T14:49:03;98.15;;;37.50;;
16436;SDS011;8328;52.206;21.006;2022-10-14T14:51:32;114.03;;;44.03;;
16436;SDS011;8328;52.206;21.006;2022-10-14T14:54:02;111.38;;;42.30;;
16436;SDS011;8328;52.206;21.006;2022-10-14T14:56:30;96.05;;;39.30;;
16436;SDS011;8328;52.206;21.006;2022-10-14T14:59:01;94.00;;;39.80;;
16436;SDS011;8328;52.206;21.006;2022-10-14T15:01:32;94.13;;;39.70;;
16436;SDS011;8328;52.206;21.006;2022-10-14T15:03:59;93.33;;;38.53;;
16436;SDS011;8328;52.206;21.006;2022-10-14T15:06:28;100.57;;;41.40;;
16436;SDS011;8328;52.206;21.006;2022-10-14T15:08:55;100.30;;;41.30;;
16436;SDS011;8328;52.206;21.006;2022-10-14T15:11:22;99.57;;;39.85;;
16436;SDS011;8328;52.206;21.006;2022-10-14T15:13:55;99.83;;;38.73;;
16436;SDS011;8328;52.206;21.006;2022-10-14T15:16:39;106.53;;;41.38;;
16436;SDS011;8328;52.206;21.006;2022-10-14T15:19:20;104.88;;;39.65;;
16436;SDS011;8328;52.206;21.006;2022-10-14T15:25:26;106.75;;;39.92;;
16436;SDS011;8328;52.206;21.006;2022-10-14T15:27:53;112.63;;;42.33;;
16436;SDS011;8328;52.206;21.006;2022-10-14T15:30:24;108.63;;;40.95;;
16436;SDS011;8328;52.206;21.006;2022-10-14T15:33:00;110.40;;;41.40;;
16436;SDS011;8328;52.206;21.006;2022-10-14T15:35:39;108.72;;;41.50;;
16436;SDS011;8328;52.206;21.006;2022-10-14T15:38:12;115.93;;;43.10;;
16436;SDS011;8328;52.206;21.006;2022-10-14T15:40:41;110.68;;;40.80;;
16436;SDS011;8328;52.206;21.006;2022-10-14T15:43:11;116.35;;;42.17;;
16436;SDS011;8328;52.206;21.006;2022-10-14T15:45:41;107.63;;;40.15;;
16436;SDS011;8328;52.206;21.006;2022-10-14T15:48:12;112.15;;;42.08;;
16436;SDS011;8328;52.206;21.006;2022-10-14T15:50:43;110.05;;;41.25;;
16436;SDS011;8328;52.206;21.006;2022-10-14T15:53:10;108.05;;;40.38;;
16436;SDS011;8328;52.206;21.006;2022-10-14T15:55:37;108.82;;;40.70;;
16436;SDS011;8328;52.206;21.006;2022-10-14T15:58:03;108.93;;;40.85;;
16436;SDS011;8328;52.206;21.006;2022-10-14T16:00:30;113.50;;;42.92;;
16436;SDS011;8328;52.206;21.006;2022-10-14T16:02:57;107.35;;;41.58;;
16436;SDS011;8328;52.206;21.006;2022-10-14T16:05:24;106.10;;;40.65;;
16436;SDS011;8328;52.206;21.006;2022-10-14T16:07:52;114.28;;;44.25;;
16436;SDS011;8328;52.206;21.006;2022-10-14T16:10:20;103.63;;;39.03;;
16436;SDS011;8328;52.206;21.006;2022-10-14T16:12:47;111.68;;;41.63;;
16436;SDS011;8328;52.206;21.006;2022-10-14T16:17:41;114.78;;;43.08;;
16436;SDS011;8328;52.206;21.006;2022-10-14T16:20:07;110.83;;;41.07;;
16436;SDS011;8328;52.206;21.006;2022-10-14T16:22:34;110.88;;;40.88;;
16436;SDS011;8328;52.206;21.006;2022-10-14T16:24:59;113.73;;;41.87;;
16436;SDS011;8328;52.206;21.006;2022-10-14T16:27:25;108.13;;;39.90;;
16436;SDS011;8328;52.206;21.006;2022-10-14T16:29:51;110.17;;;41.80;;
16436;SDS011;8328;52.206;21.006;2022-10-14T16:32:17;105.20;;;39.53;;
16436;SDS011;8328;52.206;21.006;2022-10-14T16:34:48;112.25;;;41.65;;
16436;SDS011;8328;52.206;21.006;2022-10-14T16:37:14;110.43;;;41.50;;
16436;SDS011;8328;52.206;21.006;2022-10-14T16:39:40;106.80;;;39.75;;
16436;SDS011;8328;52.206;21.006;2022-10-14T16:42:06;109.33;;;40.97;;
16436;SDS011;8328;52.206;21.006;2022-10-14T16:44:40;106.63;;;40.20;;
16436;SDS011;8328;52.206;21.006;2022-10-14T16:47:13;119.65;;;44.45;;
16436;SDS011;8328;52.206;21.006;2022-10-14T16:49:43;111.70;;;41.00;;
16436;SDS011;8328;52.206;21.006;2022-10-14T16:52:11;112.32;;;42.05;;
16436;SDS011;8328;52.206;21.006;2022-10-14T16:54:37;112.22;;;42.10;;
16436;SDS011;8328;52.206;21.006;2022-10-14T16:57:03;119.97;;;44.30;;